Mouth Of Wilson, Virginia
Current Conditions -  °F | °C
As of 7:15 PM on Thursday 27 Nov 2014 (Local Time) from KGEV Reporting Station
Overcast Overcast  
Wind Chill: 17°   Ceiling: 1600
Heat Index: 28°   Visibility: 10mi
Dew Point: 20°   Wind: 13mph
Humidity: 75%   Direction: 310°NW
Pressure: 30.14"   Gusts: 29mph
Location:  36.59°N, 81.34°W
Report Text: KGEV 280015Z AUTO 31011G25KT 280V340 10SM OVC016 M02/M06 A3014 RMK AO2 T10251064
Loading
Personal Weather Stations






























Interactive Weather Map New forecast layout! Learn more

10-Day Weather Forecast

Advertisements
Track Severe Weather on mobile